Romanovka, Russia
Current Conditions -  °F | °C
As of 5:00 AM on Tuesday 21 Oct 2014 (Local Time) from UIAA Reporting Station
Clear Clear  
Wind Chill:   Ceiling: Unl
Heat Index:   Visibility: 6mi
Dew Point: -2°   Wind: 2mph
Humidity: 85%   Direction: NA
Pressure: 30.21"   Gusts: NA
Location:  53.2°N, 112.78°E
Report Text: UIAA 202100Z VRB01MPS 9999 SKC M17/M19 Q1023 NOSIG RMK QFE70929820260
Loading
Personal Weather Stations






























Interactive Weather Map
Tropical Storm Tracking
New forecast layout! Learn more

10-Day Weather Forecast

Advertisements
Track Severe Weather on mobile